Lima, OH (45801)

11:19 AM EST on February 13, 2016 (GMT -0500)
APRSWXNET | | Change Station
CLOSE
Current Station
Personal Weather Station
Location: Lima, OH
Elevation: 861 ft
Nearby Weather Stations

Elev 861 ft 40.73 °N, 84.12 °W | Updated 50 minutes ago

Mostly Cloudy
Mostly Cloudy
13 °F
Feels Like 13 °F
N
1
Wind Variable Wind from WNW
Gusts 0.0 mph

Today
High -- | Low -- °F
--% Chance of Precip.
Yesterday
High -- | Low -- °F
Precip. -- in
Pressure 30.53 in
Visibility 10.0 miles
Clouds Mostly Cloudy 4100 ft
Windchill 13 °F
Dew Point 3 °F
Humidity 65%
Rainfall in
Snow Depth Not available.
7:33 AM 6:08 PM
Waxing Crescent, 32% visible
METAR KAOH 131553Z AUTO 31010KT 10SM BKN041 M12/M18 A3047 RMK AO2 SLP339 T11171183
Pressure 30.53 in
Visibility 10.0 miles
Clouds Mostly Cloudy 4100 ft
Windchill 13 °F
Dew Point 3 °F
Humidity 65%
Rainfall in
Snow Depth Not available.
7:33 AM 6:08 PM
Waxing Crescent, 32% visible
METAR KAOH 131553Z AUTO 31010KT 10SM BKN041 M12/M18 A3047 RMK AO2 SLP339 T11171183

10-Day Weather Forecast

Almanac

Astronomy

Feb. 13, 2016 Rise Set
Actual Time
Civil Twilight
Nautical Twilight
Astronomical Twilight
Moon
Length of Visible Light
Length of Day
Tomorrow will be .
, % of the Moon is Illuminated

Today's Extremes

State Highs State Lows

Community

WunderPhotos

Upload Photos

1,892,596 photos uploaded!

WunderBlog® & News

Nearby

Air Quality

  Air Quality AQ Index Pollutant
Not available.

Snow Depth

Station Depth Elevation

Earthquake Activity

City Distance Mag. Time & Date
Minimum magnitude displayed is 2.5.

Coastal Water Temperatures

Place Temperature

Stations

Nearby Weather Stations

Station Location Temp. Windchill Dew Point Humidity Wind Precip. Elev Updated Type
                   

Watches & Warnings

There are currently no watches in effect.